sensor_id;sensor_type;location;lat;lon;timestamp;P1;durP1;ratioP1;P2;durP2;ratioP2
28836;SDS011;50669;50.982;11.022;2023-04-01T00:01:39;4.35;;;3.20;;
28836;SDS011;50669;50.982;11.022;2023-04-01T00:04:05;3.83;;;3.13;;
28836;SDS011;50669;50.982;11.022;2023-04-01T00:06:30;4.35;;;3.47;;
28836;SDS011;50669;50.982;11.022;2023-04-01T00:08:59;3.88;;;3.08;;
28836;SDS011;50669;50.982;11.022;2023-04-01T00:11:24;4.75;;;3.38;;
28836;SDS011;50669;50.982;11.022;2023-04-01T00:13:52;4.28;;;3.80;;
28836;SDS011;50669;50.982;11.022;2023-04-01T00:16:21;4.03;;;3.22;;
28836;SDS011;50669;50.982;11.022;2023-04-01T00:18:46;4.40;;;3.10;;
28836;SDS011;50669;50.982;11.022;2023-04-01T00:21:13;4.40;;;3.25;;
28836;SDS011;50669;50.982;11.022;2023-04-01T00:23:41;3.50;;;2.78;;
28836;SDS011;50669;50.982;11.022;2023-04-01T00:26:09;4.30;;;3.42;;
28836;SDS011;50669;50.982;11.022;2023-04-01T00:28:36;4.72;;;3.50;;
28836;SDS011;50669;50.982;11.022;2023-04-01T00:31:08;4.03;;;3.38;;
28836;SDS011;50669;50.982;11.022;2023-04-01T00:33:35;4.13;;;3.30;;
28836;SDS011;50669;50.982;11.022;2023-04-01T00:36:12;4.95;;;3.83;;
28836;SDS011;50669;50.982;11.022;2023-04-01T00:38:39;4.45;;;3.63;;
28836;SDS011;50669;50.982;11.022;2023-04-01T00:41:06;3.70;;;2.97;;
28836;SDS011;50669;50.982;11.022;2023-04-01T00:43:33;3.97;;;3.00;;
28836;SDS011;50669;50.982;11.022;2023-04-01T00:45:59;4.60;;;3.28;;
28836;SDS011;50669;50.982;11.022;2023-04-01T00:48:27;4.10;;;3.10;;
28836;SDS011;50669;50.982;11.022;2023-04-01T00:53:31;3.90;;;3.30;;
28836;SDS011;50669;50.982;11.022;2023-04-01T00:56:07;5.45;;;3.85;;
28836;SDS011;50669;50.982;11.022;2023-04-01T00:58:41;3.85;;;3.45;;
28836;SDS011;50669;50.982;11.022;2023-04-01T01:01:15;4.43;;;3.60;;
28836;SDS011;50669;50.982;11.022;2023-04-01T01:03:43;3.75;;;3.03;;
28836;SDS011;50669;50.982;11.022;2023-04-01T01:09:04;3.92;;;3.08;;
28836;SDS011;50669;50.982;11.022;2023-04-01T01:14:09;4.18;;;3.40;;
28836;SDS011;50669;50.982;11.022;2023-04-01T01:22:51;3.97;;;3.00;;
28836;SDS011;50669;50.982;11.022;2023-04-01T01:25:41;4.07;;;3.15;;
28836;SDS011;50669;50.982;11.022;2023-04-01T01:31:03;4.85;;;3.83;;
28836;SDS011;50669;50.982;11.022;2023-04-01T01:36:44;4.03;;;3.35;;
28836;SDS011;50669;50.982;11.022;2023-04-01T01:39:18;4.05;;;3.05;;
28836;SDS011;50669;50.982;11.022;2023-04-01T01:41:52;4.45;;;3.60;;
28836;SDS011;50669;50.982;11.022;2023-04-01T01:44:25;4.28;;;3.05;;
28836;SDS011;50669;50.982;11.022;2023-04-01T01:46:53;4.05;;;3.15;;
28836;SDS011;50669;50.982;11.022;2023-04-01T01:49:20;5.03;;;3.70;;
28836;SDS011;50669;50.982;11.022;2023-04-01T01:51:49;4.18;;;3.45;;
28836;SDS011;50669;50.982;11.022;2023-04-01T01:54:15;4.35;;;3.17;;
28836;SDS011;50669;50.982;11.022;2023-04-01T01:56:45;4.30;;;3.25;;
28836;SDS011;50669;50.982;11.022;2023-04-01T01:59:14;4.25;;;3.20;;
28836;SDS011;50669;50.982;11.022;2023-04-01T02:01:43;4.10;;;3.40;;
28836;SDS011;50669;50.982;11.022;2023-04-01T02:04:13;5.45;;;3.25;;
28836;SDS011;50669;50.982;11.022;2023-04-01T02:06:44;4.20;;;3.40;;
28836;SDS011;50669;50.982;11.022;2023-04-01T02:09:17;3.58;;;2.75;;
28836;SDS011;50669;50.982;11.022;2023-04-01T02:14:25;3.40;;;3.05;;
28836;SDS011;50669;50.982;11.022;2023-04-01T02:17:02;3.65;;;2.88;;
28836;SDS011;50669;50.982;11.022;2023-04-01T02:19:39;3.38;;;2.92;;
28836;SDS011;50669;50.982;11.022;2023-04-01T02:22:11;3.35;;;3.05;;
28836;SDS011;50669;50.982;11.022;2023-04-01T02:24:43;3.45;;;2.83;;
28836;SDS011;50669;50.982;11.022;2023-04-01T02:27:11;3.83;;;2.90;;
28836;SDS011;50669;50.982;11.022;2023-04-01T02:29:37;3.53;;;3.10;;
28836;SDS011;50669;50.982;11.022;2023-04-01T02:32:03;3.92;;;2.80;;
28836;SDS011;50669;50.982;11.022;2023-04-01T02:34:30;3.60;;;2.92;;
28836;SDS011;50669;50.982;11.022;2023-04-01T02:37:01;4.30;;;3.70;;
28836;SDS011;50669;50.982;11.022;2023-04-01T02:39:27;3.50;;;2.88;;
28836;SDS011;50669;50.982;11.022;2023-04-01T02:41:53;3.80;;;3.10;;
28836;SDS011;50669;50.982;11.022;2023-04-01T02:44:18;3.35;;;2.85;;
28836;SDS011;50669;50.982;11.022;2023-04-01T02:46:44;4.03;;;3.05;;
28836;SDS011;50669;50.982;11.022;2023-04-01T02:49:10;4.07;;;3.10;;
28836;SDS011;50669;50.982;11.022;2023-04-01T02:51:36;3.35;;;3.00;;
28836;SDS011;50669;50.982;11.022;2023-04-01T02:54:01;3.40;;;2.70;;
28836;SDS011;50669;50.982;11.022;2023-04-01T02:56:27;3.55;;;3.00;;
28836;SDS011;50669;50.982;11.022;2023-04-01T02:58:53;3.63;;;3.10;;
28836;SDS011;50669;50.982;11.022;2023-04-01T03:01:19;4.00;;;3.05;;
28836;SDS011;50669;50.982;11.022;2023-04-01T03:03:46;3.80;;;3.10;;
28836;SDS011;50669;50.982;11.022;2023-04-01T03:06:13;3.97;;;2.95;;
28836;SDS011;50669;50.982;11.022;2023-04-01T03:08:40;3.58;;;3.00;;
28836;SDS011;50669;50.982;11.022;2023-04-01T03:11:05;3.47;;;3.10;;
28836;SDS011;50669;50.982;11.022;2023-04-01T03:13:31;4.32;;;2.90;;
28836;SDS011;50669;50.982;11.022;2023-04-01T03:15:57;3.25;;;2.65;;
28836;SDS011;50669;50.982;11.022;2023-04-01T03:18:27;3.65;;;2.63;;
28836;SDS011;50669;50.982;11.022;2023-04-01T03:20:55;4.03;;;3.10;;
28836;SDS011;50669;50.982;11.022;2023-04-01T03:23:21;3.40;;;2.63;;
28836;SDS011;50669;50.982;11.022;2023-04-01T03:25:49;3.40;;;2.88;;
28836;SDS011;50669;50.982;11.022;2023-04-01T03:28:15;3.53;;;3.00;;
28836;SDS011;50669;50.982;11.022;2023-04-01T03:30:41;2.97;;;2.63;;
28836;SDS011;50669;50.982;11.022;2023-04-01T03:33:06;3.30;;;2.80;;
28836;SDS011;50669;50.982;11.022;2023-04-01T03:35:32;3.95;;;2.85;;
28836;SDS011;50669;50.982;11.022;2023-04-01T03:37:58;3.42;;;2.70;;
28836;SDS011;50669;50.982;11.022;2023-04-01T03:40:28;3.85;;;2.50;;
28836;SDS011;50669;50.982;11.022;2023-04-01T03:43:00;3.53;;;2.80;;
28836;SDS011;50669;50.982;11.022;2023-04-01T03:45:26;3.42;;;2.47;;
28836;SDS011;50669;50.982;11.022;2023-04-01T03:47:51;3.42;;;2.83;;
28836;SDS011;50669;50.982;11.022;2023-04-01T03:50:17;3.60;;;2.90;;
28836;SDS011;50669;50.982;11.022;2023-04-01T03:52:45;4.03;;;3.08;;
28836;SDS011;50669;50.982;11.022;2023-04-01T03:55:10;3.28;;;2.60;;
28836;SDS011;50669;50.982;11.022;2023-04-01T03:57:38;3.00;;;2.38;;
28836;SDS011;50669;50.982;11.022;2023-04-01T04:00:04;2.95;;;2.22;;
28836;SDS011;50669;50.982;11.022;2023-04-01T04:02:34;3.50;;;2.63;;
28836;SDS011;50669;50.982;11.022;2023-04-01T04:05:00;3.28;;;2.80;;
28836;SDS011;50669;50.982;11.022;2023-04-01T04:07:26;4.15;;;2.50;;
28836;SDS011;50669;50.982;11.022;2023-04-01T04:09:54;3.80;;;3.08;;
28836;SDS011;50669;50.982;11.022;2023-04-01T04:12:20;3.42;;;2.60;;
28836;SDS011;50669;50.982;11.022;2023-04-01T04:14:45;3.22;;;2.58;;
28836;SDS011;50669;50.982;11.022;2023-04-01T04:17:11;3.63;;;2.65;;
28836;SDS011;50669;50.982;11.022;2023-04-01T04:19:41;3.20;;;2.58;;
28836;SDS011;50669;50.982;11.022;2023-04-01T04:22:09;2.78;;;2.25;;
28836;SDS011;50669;50.982;11.022;2023-04-01T04:24:35;3.13;;;2.28;;
28836;SDS011;50669;50.982;11.022;2023-04-01T04:27:03;3.05;;;2.38;;
28836;SDS011;50669;50.982;11.022;2023-04-01T04:29:29;4.38;;;2.92;;
28836;SDS011;50669;50.982;11.022;2023-04-01T04:31:59;2.90;;;2.40;;
28836;SDS011;50669;50.982;11.022;2023-04-01T04:34:25;3.17;;;2.72;;
28836;SDS011;50669;50.982;11.022;2023-04-01T04:36:52;3.67;;;2.78;;
28836;SDS011;50669;50.982;11.022;2023-04-01T04:39:18;3.03;;;2.45;;
28836;SDS011;50669;50.982;11.022;2023-04-01T04:41:44;3.03;;;2.58;;
28836;SDS011;50669;50.982;11.022;2023-04-01T04:44:09;3.38;;;2.72;;
28836;SDS011;50669;50.982;11.022;2023-04-01T04:46:35;3.22;;;2.42;;
28836;SDS011;50669;50.982;11.022;2023-04-01T04:49:02;3.78;;;2.55;;
28836;SDS011;50669;50.982;11.022;2023-04-01T04:51:27;3.20;;;2.53;;
28836;SDS011;50669;50.982;11.022;2023-04-01T04:53:56;2.83;;;2.20;;
28836;SDS011;50669;50.982;11.022;2023-04-01T04:56:26;3.63;;;2.55;;
28836;SDS011;50669;50.982;11.022;2023-04-01T04:58:51;3.08;;;2.35;;
28836;SDS011;50669;50.982;11.022;2023-04-01T05:01:20;2.83;;;2.47;;
28836;SDS011;50669;50.982;11.022;2023-04-01T05:03:45;2.97;;;2.40;;
28836;SDS011;50669;50.982;11.022;2023-04-01T05:06:12;2.90;;;2.30;;
28836;SDS011;50669;50.982;11.022;2023-04-01T05:08:39;2.42;;;2.13;;
28836;SDS011;50669;50.982;11.022;2023-04-01T05:11:07;2.78;;;2.38;;
28836;SDS011;50669;50.982;11.022;2023-04-01T05:13:36;2.65;;;1.83;;
28836;SDS011;50669;50.982;11.022;2023-04-01T05:16:02;3.08;;;2.60;;
28836;SDS011;50669;50.982;11.022;2023-04-01T05:18:28;2.88;;;2.38;;
28836;SDS011;50669;50.982;11.022;2023-04-01T05:20:54;2.58;;;2.10;;
28836;SDS011;50669;50.982;11.022;2023-04-01T05:23:20;2.78;;;2.22;;
28836;SDS011;50669;50.982;11.022;2023-04-01T05:25:50;2.53;;;2.00;;
28836;SDS011;50669;50.982;11.022;2023-04-01T05:28:17;3.47;;;2.40;;
28836;SDS011;50669;50.982;11.022;2023-04-01T05:30:44;3.38;;;2.40;;
28836;SDS011;50669;50.982;11.022;2023-04-01T05:33:13;3.00;;;1.98;;
28836;SDS011;50669;50.982;11.022;2023-04-01T05:35:41;2.45;;;2.13;;
28836;SDS011;50669;50.982;11.022;2023-04-01T05:38:09;2.97;;;2.15;;
28836;SDS011;50669;50.982;11.022;2023-04-01T05:40:34;2.88;;;2.30;;
28836;SDS011;50669;50.982;11.022;2023-04-01T05:43:01;3.20;;;2.47;;
28836;SDS011;50669;50.982;11.022;2023-04-01T05:45:27;2.92;;;2.33;;
28836;SDS011;50669;50.982;11.022;2023-04-01T05:47:53;3.33;;;2.50;;
28836;SDS011;50669;50.982;11.022;2023-04-01T05:50:19;2.47;;;2.00;;
28836;SDS011;50669;50.982;11.022;2023-04-01T05:52:44;2.40;;;2.20;;
28836;SDS011;50669;50.982;11.022;2023-04-01T05:55:10;3.17;;;2.22;;
28836;SDS011;50669;50.982;11.022;2023-04-01T05:57:36;3.90;;;2.15;;
28836;SDS011;50669;50.982;11.022;2023-04-01T06:00:02;3.33;;;2.38;;
28836;SDS011;50669;50.982;11.022;2023-04-01T06:02:29;2.33;;;2.08;;
28836;SDS011;50669;50.982;11.022;2023-04-01T06:05:14;3.58;;;2.47;;
28836;SDS011;50669;50.982;11.022;2023-04-01T06:07:47;3.00;;;2.17;;
28836;SDS011;50669;50.982;11.022;2023-04-01T06:10:19;2.47;;;1.98;;
28836;SDS011;50669;50.982;11.022;2023-04-01T06:15:52;2.83;;;2.30;;
28836;SDS011;50669;50.982;11.022;2023-04-01T06:40:03;2.97;;;2.17;;
28836;SDS011;50669;50.982;11.022;2023-04-01T06:50:54;3.38;;;2.20;;
28836;SDS011;50669;50.982;11.022;2023-04-01T06:56:20;2.30;;;2.03;;
28836;SDS011;50669;50.982;11.022;2023-04-01T06:58:54;2.58;;;2.20;;
28836;SDS011;50669;50.982;11.022;2023-04-01T07:01:38;2.33;;;2.03;;
28836;SDS011;50669;50.982;11.022;2023-04-01T07:04:29;2.90;;;2.08;;
28836;SDS011;50669;50.982;11.022;2023-04-01T07:06:59;2.42;;;2.03;;
28836;SDS011;50669;50.982;11.022;2023-04-01T07:09:49;2.80;;;2.25;;
28836;SDS011;50669;50.982;11.022;2023-04-01T07:17:40;2.80;;;2.00;;
28836;SDS011;50669;50.982;11.022;2023-04-01T07:20:13;2.30;;;2.08;;
28836;SDS011;50669;50.982;11.022;2023-04-01T07:23:02;2.90;;;2.10;;
28836;SDS011;50669;50.982;11.022;2023-04-01T07:25:38;2.88;;;2.20;;
28836;SDS011;50669;50.982;11.022;2023-04-01T07:28:14;2.28;;;2.03;;
28836;SDS011;50669;50.982;11.022;2023-04-01T07:31:02;2.50;;;2.10;;
28836;SDS011;50669;50.982;11.022;2023-04-01T07:33:44;2.45;;;1.77;;
28836;SDS011;50669;50.982;11.022;2023-04-01T07:39:04;2.40;;;2.00;;
28836;SDS011;50669;50.982;11.022;2023-04-01T07:41:55;2.67;;;2.08;;
28836;SDS011;50669;50.982;11.022;2023-04-01T07:59:32;2.83;;;2.30;;
28836;SDS011;50669;50.982;11.022;2023-04-01T08:07:23;3.30;;;2.30;;
28836;SDS011;50669;50.982;11.022;2023-04-01T08:17:59;2.58;;;2.05;;
28836;SDS011;50669;50.982;11.022;2023-04-01T08:25:48;2.42;;;1.77;;
28836;SDS011;50669;50.982;11.022;2023-04-01T08:28:44;2.22;;;1.73;;
28836;SDS011;50669;50.982;11.022;2023-04-01T08:33:56;2.38;;;1.98;;
28836;SDS011;50669;50.982;11.022;2023-04-01T08:36:29;2.63;;;1.98;;
28836;SDS011;50669;50.982;11.022;2023-04-01T08:39:03;2.33;;;1.83;;
28836;SDS011;50669;50.982;11.022;2023-04-01T08:41:49;2.42;;;1.90;;
28836;SDS011;50669;50.982;11.022;2023-04-01T08:44:36;2.70;;;2.17;;
28836;SDS011;50669;50.982;11.022;2023-04-01T09:00:50;2.13;;;1.77;;
28836;SDS011;50669;50.982;11.022;2023-04-01T09:06:29;2.78;;;2.25;;
28836;SDS011;50669;50.982;11.022;2023-04-01T09:12:24;2.30;;;1.92;;
28836;SDS011;50669;50.982;11.022;2023-04-01T09:20:46;2.55;;;1.83;;
28836;SDS011;50669;50.982;11.022;2023-04-01T09:26:08;2.55;;;2.08;;
28836;SDS011;50669;50.982;11.022;2023-04-01T09:28:54;2.05;;;1.60;;
28836;SDS011;50669;50.982;11.022;2023-04-01T09:39:38;2.05;;;1.60;;
28836;SDS011;50669;50.982;11.022;2023-04-01T09:42:32;2.42;;;2.03;;
28836;SDS011;50669;50.982;11.022;2023-04-01T09:51:01;3.25;;;2.60;;
28836;SDS011;50669;50.982;11.022;2023-04-01T10:02:04;3.80;;;2.80;;
28836;SDS011;50669;50.982;11.022;2023-04-01T10:05:12;4.30;;;3.47;;
28836;SDS011;50669;50.982;11.022;2023-04-01T10:16:15;4.70;;;3.63;;
28836;SDS011;50669;50.982;11.022;2023-04-01T10:56:55;5.80;;;4.35;;
28836;SDS011;50669;50.982;11.022;2023-04-01T10:59:31;4.45;;;3.85;;
28836;SDS011;50669;50.982;11.022;2023-04-01T11:28:49;5.97;;;4.15;;
28836;SDS011;50669;50.982;11.022;2023-04-01T11:39:37;5.78;;;4.65;;
28836;SDS011;50669;50.982;11.022;2023-04-01T11:44:53;5.70;;;5.10;;
28836;SDS011;50669;50.982;11.022;2023-04-01T12:04:08;5.50;;;4.80;;
28836;SDS011;50669;50.982;11.022;2023-04-01T12:12:36;5.60;;;4.90;;
28836;SDS011;50669;50.982;11.022;2023-04-01T12:15:13;5.20;;;4.70;;
28836;SDS011;50669;50.982;11.022;2023-04-01T12:18:03;5.70;;;4.95;;
28836;SDS011;50669;50.982;11.022;2023-04-01T12:56:00;5.65;;;4.95;;
28836;SDS011;50669;50.982;11.022;2023-04-01T13:01:24;6.47;;;4.95;;
28836;SDS011;50669;50.982;11.022;2023-04-01T13:42:51;4.78;;;4.28;;
28836;SDS011;50669;50.982;11.022;2023-04-01T13:45:26;5.28;;;4.28;;
28836;SDS011;50669;50.982;11.022;2023-04-01T14:19:11;5.93;;;5.05;;
28836;SDS011;50669;50.982;11.022;2023-04-01T14:22:00;5.03;;;4.53;;
28836;SDS011;50669;50.982;11.022;2023-04-01T14:24:32;4.55;;;4.13;;
28836;SDS011;50669;50.982;11.022;2023-04-01T14:29:59;6.28;;;5.10;;
28836;SDS011;50669;50.982;11.022;2023-04-01T14:35:17;5.10;;;4.57;;
28836;SDS011;50669;50.982;11.022;2023-04-01T14:46:14;6.07;;;5.30;;
28836;SDS011;50669;50.982;11.022;2023-04-01T14:49:49;6.15;;;5.30;;
28836;SDS011;50669;50.982;11.022;2023-04-01T14:52:04;6.63;;;5.22;;
28836;SDS011;50669;50.982;11.022;2023-04-01T14:54:46;6.03;;;5.13;;
28836;SDS011;50669;50.982;11.022;2023-04-01T14:57:16;5.70;;;5.10;;
28836;SDS011;50669;50.982;11.022;2023-04-01T15:00:00;6.10;;;4.82;;
28836;SDS011;50669;50.982;11.022;2023-04-01T15:08:26;6.38;;;5.13;;
28836;SDS011;50669;50.982;11.022;2023-04-01T15:22:26;5.75;;;5.15;;
28836;SDS011;50669;50.982;11.022;2023-04-01T15:25:19;5.97;;;5.38;;
28836;SDS011;50669;50.982;11.022;2023-04-01T15:28:06;6.35;;;5.18;;
28836;SDS011;50669;50.982;11.022;2023-04-01T15:41:27;5.72;;;4.90;;
28836;SDS011;50669;50.982;11.022;2023-04-01T15:47:22;5.45;;;4.68;;
28836;SDS011;50669;50.982;11.022;2023-04-01T15:55:48;6.15;;;4.90;;
28836;SDS011;50669;50.982;11.022;2023-04-01T16:03:52;6.55;;;5.07;;
28836;SDS011;50669;50.982;11.022;2023-04-01T16:06:32;5.70;;;5.10;;
28836;SDS011;50669;50.982;11.022;2023-04-01T16:12:19;5.22;;;4.28;;
28836;SDS011;50669;50.982;11.022;2023-04-01T16:20:24;5.00;;;4.20;;
28836;SDS011;50669;50.982;11.022;2023-04-01T16:22:59;5.10;;;4.55;;
28836;SDS011;50669;50.982;11.022;2023-04-01T16:26:07;5.07;;;4.47;;
28836;SDS011;50669;50.982;11.022;2023-04-01T16:28:52;5.10;;;4.53;;
28836;SDS011;50669;50.982;11.022;2023-04-01T16:34:06;6.07;;;4.88;;
28836;SDS011;50669;50.982;11.022;2023-04-01T16:36:54;4.88;;;4.32;;
28836;SDS011;50669;50.982;11.022;2023-04-01T16:43:04;5.32;;;4.80;;
28836;SDS011;50669;50.982;11.022;2023-04-01T16:48:14;5.45;;;4.95;;
28836;SDS011;50669;50.982;11.022;2023-04-01T16:50:44;5.10;;;4.03;;
28836;SDS011;50669;50.982;11.022;2023-04-01T16:53:34;5.32;;;4.70;;
28836;SDS011;50669;50.982;11.022;2023-04-01T16:58:32;5.07;;;4.57;;
28836;SDS011;50669;50.982;11.022;2023-04-01T17:01:03;4.82;;;4.20;;
28836;SDS011;50669;50.982;11.022;2023-04-01T17:04:00;4.88;;;4.45;;
28836;SDS011;50669;50.982;11.022;2023-04-01T17:09:27;5.07;;;4.57;;
28836;SDS011;50669;50.982;11.022;2023-04-01T17:14:43;4.88;;;4.38;;
28836;SDS011;50669;50.982;11.022;2023-04-01T17:33:23;5.03;;;4.40;;
28836;SDS011;50669;50.982;11.022;2023-04-01T17:55:51;5.38;;;4.35;;
28836;SDS011;50669;50.982;11.022;2023-04-01T18:01:30;5.53;;;4.45;;
28836;SDS011;50669;50.982;11.022;2023-04-01T18:04:08;4.35;;;3.70;;
28836;SDS011;50669;50.982;11.022;2023-04-01T18:07:04;4.85;;;4.38;;
28836;SDS011;50669;50.982;11.022;2023-04-01T18:15:21;4.40;;;3.70;;
28836;SDS011;50669;50.982;11.022;2023-04-01T18:23:36;4.63;;;3.90;;
28836;SDS011;50669;50.982;11.022;2023-04-01T18:26:10;5.20;;;4.22;;
28836;SDS011;50669;50.982;11.022;2023-04-01T18:28:51;4.22;;;3.83;;
28836;SDS011;50669;50.982;11.022;2023-04-01T18:31:23;5.07;;;4.32;;
28836;SDS011;50669;50.982;11.022;2023-04-01T18:36:26;5.40;;;4.05;;
28836;SDS011;50669;50.982;11.022;2023-04-01T18:39:14;4.43;;;3.95;;
28836;SDS011;50669;50.982;11.022;2023-04-01T18:41:55;4.30;;;3.45;;
28836;SDS011;50669;50.982;11.022;2023-04-01T18:47:34;4.53;;;4.13;;
28836;SDS011;50669;50.982;11.022;2023-04-01T18:50:24;4.82;;;4.10;;
28836;SDS011;50669;50.982;11.022;2023-04-01T18:56:07;4.05;;;3.42;;
28836;SDS011;50669;50.982;11.022;2023-04-01T18:58:54;5.25;;;4.25;;
28836;SDS011;50669;50.982;11.022;2023-04-01T19:08:13;4.47;;;3.88;;
28836;SDS011;50669;50.982;11.022;2023-04-01T19:10:20;4.50;;;3.88;;
28836;SDS011;50669;50.982;11.022;2023-04-01T19:21:43;4.75;;;3.85;;
28836;SDS011;50669;50.982;11.022;2023-04-01T19:50:30;4.43;;;3.72;;
28836;SDS011;50669;50.982;11.022;2023-04-01T19:53:14;4.43;;;3.80;;
28836;SDS011;50669;50.982;11.022;2023-04-01T19:55:45;4.10;;;3.70;;
28836;SDS011;50669;50.982;11.022;2023-04-01T19:58:33;3.53;;;3.20;;
28836;SDS011;50669;50.982;11.022;2023-04-01T20:01:06;4.22;;;3.72;;
28836;SDS011;50669;50.982;11.022;2023-04-01T20:06:14;3.75;;;3.28;;
28836;SDS011;50669;50.982;11.022;2023-04-01T20:11:38;4.10;;;3.63;;
28836;SDS011;50669;50.982;11.022;2023-04-01T20:14:13;4.35;;;3.55;;
28836;SDS011;50669;50.982;11.022;2023-04-01T20:24:53;4.10;;;3.70;;
28836;SDS011;50669;50.982;11.022;2023-04-01T20:27:26;4.60;;;3.90;;
28836;SDS011;50669;50.982;11.022;2023-04-01T20:53:01;4.40;;;3.53;;
28836;SDS011;50669;50.982;11.022;2023-04-01T20:55:52;3.42;;;3.13;;
28836;SDS011;50669;50.982;11.022;2023-04-01T20:58:47;3.75;;;3.17;;
28836;SDS011;50669;50.982;11.022;2023-04-01T21:01:34;3.47;;;3.10;;
28836;SDS011;50669;50.982;11.022;2023-04-01T21:04:30;4.03;;;3.60;;
28836;SDS011;50669;50.982;11.022;2023-04-01T21:12:34;4.15;;;3.70;;
28836;SDS011;50669;50.982;11.022;2023-04-01T21:15:27;3.78;;;3.42;;
28836;SDS011;50669;50.982;11.022;2023-04-01T21:21:03;4.05;;;3.63;;
28836;SDS011;50669;50.982;11.022;2023-04-01T21:24:23;3.88;;;3.17;;
28836;SDS011;50669;50.982;11.022;2023-04-01T21:32:26;3.90;;;3.38;;
28836;SDS011;50669;50.982;11.022;2023-04-01T21:38:11;4.28;;;3.72;;
28836;SDS011;50669;50.982;11.022;2023-04-01T22:04:57;3.80;;;3.10;;
28836;SDS011;50669;50.982;11.022;2023-04-01T22:07:48;3.67;;;3.28;;
28836;SDS011;50669;50.982;11.022;2023-04-01T22:13:06;4.00;;;3.45;;
28836;SDS011;50669;50.982;11.022;2023-04-01T22:18:33;3.25;;;2.95;;
28836;SDS011;50669;50.982;11.022;2023-04-01T22:32:23;3.42;;;3.10;;
28836;SDS011;50669;50.982;11.022;2023-04-01T22:46:05;3.60;;;3.30;;
28836;SDS011;50669;50.982;11.022;2023-04-01T22:48:37;3.80;;;2.92;;
28836;SDS011;50669;50.982;11.022;2023-04-01T22:53:51;4.13;;;3.67;;
28836;SDS011;50669;50.982;11.022;2023-04-01T22:56:21;3.67;;;2.95;;
28836;SDS011;50669;50.982;11.022;2023-04-01T22:58:59;4.07;;;3.17;;
28836;SDS011;50669;50.982;11.022;2023-04-01T23:01:33;3.00;;;2.70;;
28836;SDS011;50669;50.982;11.022;2023-04-01T23:04:05;3.40;;;3.05;;
28836;SDS011;50669;50.982;11.022;2023-04-01T23:06:38;3.10;;;2.80;;
28836;SDS011;50669;50.982;11.022;2023-04-01T23:09:12;3.78;;;3.20;;
28836;SDS011;50669;50.982;11.022;2023-04-01T23:28:44;3.30;;;3.00;;
28836;SDS011;50669;50.982;11.022;2023-04-01T23:36:41;3.08;;;2.70;;
28836;SDS011;50669;50.982;11.022;2023-04-01T23:41:48;3.17;;;2.80;;
28836;SDS011;50669;50.982;11.022;2023-04-01T23:44:17;2.80;;;2.60;;
28836;SDS011;50669;50.982;11.022;2023-04-01T23:46:44;3.58;;;3.17;;
28836;SDS011;50669;50.982;11.022;2023-04-01T23:49:20;3.35;;;3.05;;
28836;SDS011;50669;50.982;11.022;2023-04-01T23:52:03;3.15;;;2.85;;
28836;SDS011;50669;50.982;11.022;2023-04-01T23:54:42;3.47;;;2.78;;
28836;SDS011;50669;50.982;11.022;2023-04-01T23:57:14;3.45;;;3.15;;
28836;SDS011;50669;50.982;11.022;2023-04-01T23:59:58;3.65;;;3.25;;
